createdAt,value
2019-05-02T00:01:26.735Z,14.07
2019-05-02T00:04:00.209Z,11.73
2019-05-02T00:06:38.050Z,11.33
2019-05-02T00:09:11.153Z,12.17
2019-05-02T00:11:57.671Z,11.73
2019-05-02T00:14:20.237Z,15.43
2019-05-02T00:16:53.660Z,12.97
2019-05-02T00:19:27.122Z,14.73
2019-05-02T00:22:00.682Z,15.60
2019-05-02T00:24:39.261Z,14.53
2019-05-02T00:27:09.424Z,17.77
2019-05-02T00:29:42.829Z,20.73
2019-05-02T00:32:18.307Z,18.43
2019-05-02T00:34:51.433Z,17.13
2019-05-02T00:37:26.612Z,17.60
2019-05-02T00:39:59.977Z,18.80
2019-05-02T00:42:33.405Z,18.03
2019-05-02T00:45:07.257Z,19.57
2019-05-02T00:47:47.497Z,16.53
2019-05-02T00:50:18.101Z,17.83
2019-05-02T00:52:51.522Z,18.17
2019-05-02T00:55:28.764Z,17.30
2019-05-02T00:58:00.076Z,15.77
2019-05-02T01:00:35.127Z,16.07
2019-05-02T01:03:11.073Z,13.53
2019-05-02T01:05:43.753Z,18.83
2019-05-02T01:08:17.187Z,22.23
2019-05-02T01:10:52.199Z,22.07
2019-05-02T01:13:25.741Z,18.37
2019-05-02T01:15:59.146Z,18.53
2019-05-02T01:18:32.559Z,17.40
2019-05-02T01:21:05.969Z,21.73
2019-05-02T01:23:39.452Z,17.57
2019-05-02T01:26:12.918Z,17.23
2019-05-02T01:28:54.223Z,22.83
2019-05-02T01:31:49.882Z,19.37
2019-05-02T01:34:26.012Z,22.23
2019-05-02T01:37:07.028Z,22.93
2019-05-02T01:39:42.694Z,26.40
2019-05-02T01:42:15.629Z,27.70
2019-05-02T01:44:49.041Z,28.23
2019-05-02T01:47:22.439Z,28.20
2019-05-02T01:49:57.188Z,28.23
2019-05-02T01:52:30.998Z,25.30
2019-05-02T01:55:06.342Z,25.20
2019-05-02T01:57:40.008Z,21.80
2019-05-02T02:00:15.319Z,23.17
2019-05-02T02:02:48.712Z,23.97
2019-05-02T02:05:22.120Z,21.03
2019-05-02T02:07:57.431Z,24.80
2019-05-02T02:10:30.660Z,23.47
2019-05-02T02:13:05.289Z,20.43
2019-05-02T02:15:38.980Z,27.07
2019-05-02T02:18:13.767Z,25.83
2019-05-02T02:20:49.329Z,21.53
2019-05-02T02:23:25.241Z,24.27
2019-05-02T02:26:06.949Z,20.77
2019-05-02T02:28:38.275Z,19.80
2019-05-02T02:31:11.704Z,22.13
2019-05-02T02:33:47.926Z,22.30
2019-05-02T02:36:30.365Z,22.70
2019-05-02T02:38:55.491Z,21.77
2019-05-02T02:41:28.913Z,20.50
2019-05-02T02:44:07.634Z,18.97
2019-05-02T02:46:45.659Z,23.33
2019-05-02T02:49:21.430Z,22.67
2019-05-02T02:51:57.944Z,22.20
2019-05-02T02:54:29.316Z,24.83
2019-05-02T02:57:02.747Z,19.43
2019-05-02T02:59:36.140Z,21.23
2019-05-02T03:02:11.856Z,22.73
2019-05-02T03:04:46.426Z,21.97
2019-05-02T03:07:25.941Z,22.50
2019-05-02T03:09:59.646Z,19.57
2019-05-02T03:12:36.302Z,24.33
2019-05-02T03:15:09.144Z,23.03
2019-05-02T03:17:42.630Z,24.53
2019-05-02T03:20:16.019Z,26.63
2019-05-02T03:22:49.435Z,25.53
2019-05-02T03:25:25.014Z,24.83
2019-05-02T03:27:58.416Z,25.30
2019-05-02T03:30:37.430Z,22.47
2019-05-02T03:33:11.163Z,24.67
2019-05-02T03:35:48.395Z,24.70
2019-05-02T03:38:17.321Z,24.60
2019-05-02T03:40:50.855Z,22.60
2019-05-02T03:43:25.773Z,25.77
2019-05-02T03:45:59.508Z,22.13
2019-05-02T03:48:32.978Z,26.03
2019-05-02T03:51:19.750Z,29.17
2019-05-02T03:53:41.573Z,26.03
2019-05-02T03:56:14.977Z,25.70
2019-05-02T03:58:55.968Z,24.67
2019-05-02T04:01:23.867Z,26.07
2019-05-02T04:03:57.333Z,21.40
2019-05-02T04:06:31.598Z,27.83
2019-05-02T04:09:07.461Z,25.40
2019-05-02T04:11:41.801Z,26.67
2019-05-02T04:14:23.292Z,25.30
2019-05-02T04:16:55.315Z,29.37
2019-05-02T04:19:28.750Z,28.47
2019-05-02T04:22:08.974Z,24.60
2019-05-02T04:24:37.171Z,25.87
2019-05-02T04:27:11.812Z,25.53
2019-05-02T04:29:45.222Z,24.97
2019-05-02T04:32:18.621Z,25.13
2019-05-02T04:34:55.095Z,22.97
2019-05-02T04:37:27.162Z,24.37
2019-05-02T04:40:03.169Z,24.17
2019-05-02T04:42:35.712Z,24.00
2019-05-02T04:45:21.840Z,22.73
2019-05-02T04:47:57.499Z,25.17
2019-05-02T04:50:25.012Z,22.37
2019-05-02T04:52:54.508Z,25.00
2019-05-02T04:55:32.364Z,23.00
2019-05-02T04:58:03.059Z,23.67
2019-05-02T05:00:38.989Z,26.33
2019-05-02T05:03:15.748Z,24.87
2019-05-02T05:05:48.187Z,20.53
2019-05-02T05:08:26.634Z,26.33
2019-05-02T05:10:57.371Z,26.10
2019-05-02T05:13:30.862Z,21.73
2019-05-02T05:16:08.612Z,22.87
2019-05-02T05:18:39.451Z,22.73
2019-05-02T05:21:12.863Z,23.80
2019-05-02T05:23:51.708Z,19.90
2019-05-02T05:26:23.606Z,20.33
2019-05-02T05:28:58.393Z,23.10
2019-05-02T05:31:31.886Z,20.47
2019-05-02T05:34:05.294Z,20.20
2019-05-02T05:36:38.725Z,23.47
2019-05-02T05:39:12.122Z,24.00
2019-05-02T05:41:50.567Z,23.07
2019-05-02T05:44:23.334Z,19.90
2019-05-02T05:46:57.991Z,19.63
2019-05-02T05:49:30.976Z,21.07
2019-05-02T05:52:04.482Z,21.63
2019-05-02T05:54:41.862Z,22.53
2019-05-02T05:57:17.374Z,21.77
2019-05-02T05:59:48.563Z,24.17
2019-05-02T06:02:21.937Z,24.23
2019-05-02T06:05:01.998Z,25.97
2019-05-02T06:07:33.574Z,26.20
2019-05-02T06:10:07.994Z,26.05
2019-05-02T06:12:41.600Z,27.03
2019-05-02T06:15:15.138Z,28.77
2019-05-02T06:17:48.548Z,29.00
2019-05-02T06:20:25.767Z,24.67
2019-05-02T06:22:59.999Z,28.00
2019-05-02T06:25:36.409Z,27.03
2019-05-02T06:28:07.346Z,28.20
2019-05-02T06:30:40.764Z,34.90
2019-05-02T06:33:14.170Z,31.17
2019-05-02T06:35:47.665Z,32.27
2019-05-02T06:38:22.921Z,34.77
2019-05-02T06:40:56.586Z,36.37
2019-05-02T06:43:30.009Z,39.60
2019-05-02T06:46:15.579Z,41.23
2019-05-02T06:48:38.615Z,42.00
2019-05-02T06:51:19.638Z,45.75
2019-05-02T06:53:48.905Z,51.93
2019-05-02T06:56:22.452Z,51.03
2019-05-02T06:58:55.889Z,49.17
2019-05-02T07:01:29.319Z,51.73
2019-05-02T07:04:04.383Z,42.00
2019-05-02T07:06:56.028Z,37.83
2019-05-02T07:09:13.519Z,37.27
2019-05-02T07:11:57.048Z,29.60
2019-05-02T07:14:23.637Z,40.00
2019-05-02T07:16:59.019Z,37.63
2019-05-02T07:19:49.342Z,49.20
2019-05-02T07:22:23.183Z,37.00
2019-05-02T07:24:56.594Z,40.90
2019-05-02T07:27:33.739Z,44.57
2019-05-02T07:30:08.593Z,42.03
2019-05-02T07:32:43.376Z,42.73
2019-05-02T07:35:19.248Z,46.00
2019-05-02T07:37:52.144Z,49.33
2019-05-02T07:40:25.620Z,58.33
2019-05-02T07:42:59.032Z,54.93
2019-05-02T07:45:32.535Z,53.90
2019-05-02T07:48:05.961Z,58.07
2019-05-02T07:50:41.277Z,57.33
2019-05-02T07:53:14.520Z,55.57
2019-05-02T07:55:49.224Z,62.03
2019-05-02T07:58:22.738Z,59.97
2019-05-02T08:00:56.173Z,58.03
2019-05-02T08:03:33.582Z,61.57
2019-05-02T08:06:04.923Z,59.90
2019-05-02T08:08:38.336Z,64.27
2019-05-02T08:11:11.870Z,63.20
2019-05-02T08:13:49.618Z,72.70
2019-05-02T08:16:22.380Z,78.57
2019-05-02T08:18:55.659Z,85.87
2019-05-02T08:21:32.465Z,82.70
2019-05-02T08:24:04.521Z,80.30
2019-05-02T08:26:58.277Z,79.80
2019-05-02T08:29:31.018Z,88.63
2019-05-02T08:32:04.602Z,83.53
2019-05-02T08:34:38.010Z,78.07
2019-05-02T08:37:11.440Z,80.47
2019-05-02T08:39:44.841Z,78.40
2019-05-02T08:42:18.280Z,81.73
2019-05-02T08:44:56.242Z,80.83
2019-05-02T08:47:28.457Z,83.33
2019-05-02T08:50:02.090Z,81.43
2019-05-02T08:52:36.747Z,78.63
2019-05-02T08:55:11.174Z,83.00
2019-05-02T08:57:44.588Z,77.80
2019-05-02T09:00:18.255Z,79.23
2019-05-02T09:02:51.770Z,81.40
2019-05-02T09:05:25.164Z,78.07
2019-05-02T09:07:58.606Z,75.77
2019-05-02T09:10:32.085Z,71.70
2019-05-02T09:13:05.672Z,73.13
2019-05-02T09:15:40.345Z,72.63
2019-05-02T09:18:14.242Z,69.53
2019-05-02T09:20:52.599Z,71.67
2019-05-02T09:23:23.032Z,71.20
2019-05-02T09:25:58.056Z,69.10
2019-05-02T09:28:32.113Z,72.10
2019-05-02T09:31:06.762Z,69.80
2019-05-02T09:33:42.477Z,72.83
2019-05-02T09:36:15.742Z,69.17
2019-05-02T09:38:55.968Z,68.80
2019-05-02T09:41:31.773Z,69.20
2019-05-02T09:44:02.893Z,72.07
2019-05-02T09:46:36.412Z,67.77
2019-05-02T09:49:14.392Z,72.03
2019-05-02T09:51:45.651Z,73.87
2019-05-02T09:54:22.837Z,74.87
2019-05-02T09:56:55.631Z,76.90
2019-05-02T09:59:33.073Z,70.10
2019-05-02T10:02:06.759Z,69.07
2019-05-02T10:04:43.819Z,72.30
2019-05-02T10:07:15.635Z,74.73
2019-05-02T10:09:49.236Z,71.60
2019-05-02T10:12:22.973Z,72.47
2019-05-02T10:14:56.549Z,69.57
2019-05-02T10:17:32.065Z,71.00
2019-05-02T10:20:07.608Z,70.12
2019-05-02T10:22:41.855Z,77.30
2019-05-02T10:25:16.317Z,69.13
2019-05-02T10:27:49.805Z,71.20
2019-05-02T10:30:25.007Z,66.10
2019-05-02T10:32:58.526Z,70.30
2019-05-02T10:35:45.667Z,70.37
2019-05-02T10:38:19.527Z,79.73
2019-05-02T10:40:59.319Z,67.20
2019-05-02T10:43:28.478Z,65.53
2019-05-02T10:46:06.272Z,65.57
2019-05-02T10:48:42.133Z,64.63
2019-05-02T10:51:26.461Z,67.37
2019-05-02T10:53:59.877Z,65.47
2019-05-02T10:56:33.304Z,66.13
2019-05-02T10:59:06.743Z,64.90
2019-05-02T11:01:41.903Z,65.03
2019-05-02T11:04:16.293Z,64.70
2019-05-02T11:06:51.697Z,64.40
2019-05-02T11:09:26.370Z,64.17
2019-05-02T11:12:02.670Z,66.20
2019-05-02T11:14:37.784Z,62.17
2019-05-02T11:17:17.282Z,64.33
2019-05-02T11:19:49.617Z,62.60
2019-05-02T11:22:23.039Z,57.13
2019-05-02T11:24:56.443Z,60.50
2019-05-02T11:27:29.868Z,57.43
2019-05-02T11:30:05.091Z,60.27
2019-05-02T11:32:38.612Z,59.87
2019-05-02T11:35:12.315Z,62.63
2019-05-02T11:37:45.764Z,58.47
2019-05-02T11:40:19.241Z,60.30
2019-05-02T11:42:52.680Z,58.23
2019-05-02T11:45:26.081Z,58.07
2019-05-02T11:48:01.672Z,57.63
2019-05-02T11:50:35.551Z,59.37
2019-05-02T11:53:22.313Z,53.00
2019-05-02T11:55:44.107Z,53.00
2019-05-02T11:58:17.525Z,53.63
2019-05-02T12:00:52.333Z,51.67
2019-05-02T12:03:28.255Z,51.50
2019-05-02T12:06:06.695Z,50.50
2019-05-02T12:08:39.333Z,51.53
2019-05-02T12:11:17.428Z,49.33
2019-05-02T12:13:52.824Z,52.10
2019-05-02T12:16:24.161Z,50.97
2019-05-02T12:19:08.462Z,55.87
2019-05-02T12:21:32.892Z,52.93
2019-05-02T12:24:06.355Z,52.40
2019-05-02T12:26:41.793Z,49.27
2019-05-02T12:29:14.952Z,50.67
2019-05-02T12:31:52.674Z,53.93
2019-05-02T12:34:23.679Z,52.73
2019-05-02T12:36:57.192Z,51.63
2019-05-02T12:39:31.693Z,51.80
2019-05-02T12:42:05.798Z,47.60
2019-05-02T12:44:39.499Z,48.80
2019-05-02T12:47:12.969Z,45.67
2019-05-02T12:49:46.410Z,48.80
2019-05-02T12:52:19.832Z,41.53
2019-05-02T12:54:53.334Z,42.33
2019-05-02T12:57:26.755Z,43.57
2019-05-02T13:00:02.035Z,38.03
2019-05-02T13:02:36.970Z,38.07
2019-05-02T13:05:10.679Z,38.07
2019-05-02T13:07:50.364Z,38.77
2019-05-02T13:10:21.959Z,38.13
2019-05-02T13:12:55.420Z,38.17
2019-05-02T13:15:29.113Z,39.33
2019-05-02T13:18:03.083Z,33.97
2019-05-02T13:20:38.428Z,34.83
2019-05-02T13:23:15.377Z,32.70
2019-05-02T13:25:48.940Z,34.03
2019-05-02T13:28:25.664Z,29.70
2019-05-02T13:30:59.280Z,29.87
2019-05-02T13:33:49.129Z,30.53
2019-05-02T13:36:44.327Z,33.27
2019-05-02T13:39:39.454Z,27.70
2019-05-02T13:42:13.075Z,35.43
2019-05-02T13:45:03.475Z,32.63
2019-05-02T13:47:36.906Z,27.03
2019-05-02T13:50:12.780Z,29.90
2019-05-02T13:52:55.037Z,31.70
2019-05-02T13:55:25.480Z,29.83
2019-05-02T13:57:58.875Z,28.77
2019-05-02T14:00:34.107Z,28.03
2019-05-02T14:03:07.780Z,27.43
2019-05-02T14:05:49.160Z,27.27
2019-05-02T14:08:19.739Z,27.10
2019-05-02T14:11:01.902Z,29.60
2019-05-02T14:13:35.638Z,23.83
2019-05-02T14:16:09.221Z,25.57
2019-05-02T14:18:42.623Z,22.17
2019-05-02T14:21:16.124Z,22.63
2019-05-02T14:23:51.678Z,22.47
2019-05-02T14:26:30.193Z,22.30
2019-05-02T14:28:59.833Z,24.17
2019-05-02T14:31:33.272Z,25.47
2019-05-02T14:34:14.023Z,28.37
2019-05-02T14:36:47.445Z,25.03
2019-05-02T14:39:22.656Z,26.80
2019-05-02T14:41:56.114Z,25.57
2019-05-02T14:44:59.805Z,27.47
2019-05-02T14:47:04.912Z,27.33
2019-05-02T14:49:38.381Z,24.70
2019-05-02T14:52:12.643Z,23.50
2019-05-02T14:54:48.074Z,25.30
2019-05-02T14:57:22.940Z,24.10
2019-05-02T14:59:59.549Z,23.70
2019-05-02T15:02:39.360Z,22.97
2019-05-02T15:05:12.752Z,22.00
2019-05-02T15:07:46.374Z,21.57
2019-05-02T15:10:19.930Z,25.97
2019-05-02T15:12:59.772Z,28.17
2019-05-02T15:15:33.607Z,25.67
2019-05-02T15:18:07.900Z,26.00
2019-05-02T15:20:39.508Z,25.20
2019-05-02T15:23:19.346Z,24.60
2019-05-02T15:25:52.511Z,23.53
2019-05-02T15:28:24.402Z,23.23
2019-05-02T15:31:05.186Z,21.30
2019-05-02T15:33:42.058Z,22.00
2019-05-02T15:36:15.542Z,21.67
2019-05-02T15:38:48.986Z,24.23
2019-05-02T15:41:23.148Z,23.37
2019-05-02T15:43:56.593Z,23.07
2019-05-02T15:46:31.765Z,24.53
2019-05-02T15:49:05.893Z,23.90
2019-05-02T15:51:45.039Z,27.40
2019-05-02T15:54:18.837Z,28.33
2019-05-02T15:57:00.410Z,23.30
2019-05-02T15:59:37.646Z,25.63
2019-05-02T16:02:13.006Z,24.90
2019-05-02T16:04:46.539Z,24.67
2019-05-02T16:07:19.960Z,23.90
2019-05-02T16:09:57.274Z,21.70
2019-05-02T16:12:31.941Z,23.10
2019-05-02T16:15:13.089Z,22.33
2019-05-02T16:17:42.208Z,22.30
2019-05-02T16:20:18.402Z,22.47
2019-05-02T16:22:52.409Z,20.70
2019-05-02T16:25:26.057Z,20.37
2019-05-02T16:28:02.672Z,22.47
2019-05-02T16:30:37.005Z,18.20
2019-05-02T16:33:17.411Z,22.40
2019-05-02T16:35:46.252Z,17.20
2019-05-02T16:38:22.124Z,19.43
2019-05-02T16:40:55.609Z,20.87
2019-05-02T16:43:32.334Z,22.97
2019-05-02T16:46:06.563Z,20.50
2019-05-02T16:48:42.596Z,20.37
2019-05-02T16:51:30.265Z,20.17
2019-05-02T16:53:51.353Z,19.50
2019-05-02T16:56:24.792Z,19.97
2019-05-02T16:58:58.191Z,21.07
2019-05-02T17:01:38.453Z,18.97
2019-05-02T17:04:12.921Z,20.17
2019-05-02T17:06:46.625Z,14.33
2019-05-02T17:09:22.353Z,17.23
2019-05-02T17:11:56.826Z,21.27
2019-05-02T17:14:31.742Z,15.97
2019-05-02T17:17:05.407Z,17.77
2019-05-02T17:19:40.354Z,17.00
2019-05-02T17:22:16.759Z,14.30
2019-05-02T17:24:48.918Z,17.43
2019-05-02T17:27:24.591Z,20.67
2019-05-02T17:29:59.217Z,13.30
2019-05-02T17:32:34.155Z,14.50
2019-05-02T17:35:09.877Z,13.87
2019-05-02T17:37:48.779Z,10.43
2019-05-02T17:40:24.433Z,10.73
2019-05-02T17:42:57.130Z,11.97
2019-05-02T17:45:33.513Z,12.13
2019-05-02T17:48:10.416Z,11.30
2019-05-02T17:50:49.346Z,10.63
2019-05-02T17:53:23.882Z,11.90
2019-05-02T17:55:57.356Z,17.30
2019-05-02T17:58:31.780Z,13.70
2019-05-02T18:01:07.431Z,12.10
2019-05-02T18:03:42.560Z,15.47
2019-05-02T18:06:17.350Z,21.23
2019-05-02T18:08:55.169Z,18.13
2019-05-02T18:11:29.600Z,15.20
2019-05-02T18:14:03.315Z,16.63
2019-05-02T18:16:39.291Z,16.77
2019-05-02T18:19:16.065Z,20.03
2019-05-02T18:21:47.525Z,16.83
2019-05-02T18:24:22.298Z,17.63
2019-05-02T18:26:55.886Z,20.10
2019-05-02T18:29:29.380Z,21.93
2019-05-02T18:32:05.076Z,19.70
2019-05-02T18:34:38.560Z,21.13
2019-05-02T18:37:11.962Z,23.20
2019-05-02T18:39:50.855Z,22.90
2019-05-02T18:42:21.940Z,20.50
2019-05-02T18:44:55.917Z,20.10
2019-05-02T18:47:29.368Z,19.67
2019-05-02T18:50:06.093Z,21.37
2019-05-02T18:52:43.094Z,21.00
2019-05-02T18:55:17.211Z,23.53
2019-05-02T18:57:48.625Z,21.80
2019-05-02T19:00:22.912Z,19.57
2019-05-02T19:02:56.676Z,21.50
2019-05-02T19:05:30.232Z,24.90
2019-05-02T19:08:03.691Z,24.97
2019-05-02T19:10:41.671Z,25.20
2019-05-02T19:13:12.838Z,24.37
2019-05-02T19:15:48.916Z,24.17
2019-05-02T19:18:21.562Z,24.60
2019-05-02T19:21:02.528Z,25.80
2019-05-02T19:23:36.544Z,21.77
2019-05-02T19:26:13.106Z,24.67
2019-05-02T19:28:52.158Z,25.93
2019-05-02T19:31:26.740Z,25.33
2019-05-02T19:34:02.290Z,25.80
2019-05-02T19:36:35.386Z,26.50
2019-05-02T19:39:09.950Z,25.50
2019-05-02T19:41:45.394Z,27.13
2019-05-02T19:44:21.538Z,24.90
2019-05-02T19:46:53.891Z,27.47
2019-05-02T19:49:27.299Z,27.70
2019-05-02T19:52:02.296Z,31.40
2019-05-02T19:54:39.229Z,29.63
2019-05-02T19:57:11.876Z,30.27
2019-05-02T19:59:45.445Z,29.43
2019-05-02T20:02:19.128Z,31.17
2019-05-02T20:04:52.531Z,29.60
2019-05-02T20:07:25.959Z,35.57
2019-05-02T20:09:59.455Z,31.83
2019-05-02T20:12:32.895Z,32.60
2019-05-02T20:15:09.339Z,32.70
2019-05-02T20:17:42.778Z,38.70
2019-05-02T20:20:40.671Z,35.87
2019-05-02T20:23:18.385Z,35.33
2019-05-02T20:25:52.234Z,39.07
2019-05-02T20:28:25.875Z,38.23
2019-05-02T20:30:59.357Z,38.53
2019-05-02T20:33:32.891Z,39.13
2019-05-02T20:36:06.355Z,40.57
2019-05-02T20:38:41.626Z,36.67
2019-05-02T20:41:15.026Z,41.87
2019-05-02T20:43:48.460Z,38.33
2019-05-02T20:46:22.041Z,42.77
2019-05-02T20:48:55.531Z,47.63
2019-05-02T20:51:29.094Z,46.77
2019-05-02T20:54:02.545Z,46.50
2019-05-02T20:56:36.031Z,46.83
2019-05-02T20:59:09.452Z,46.83
2019-05-02T21:01:43.107Z,42.43
2019-05-02T21:04:16.767Z,47.07
2019-05-02T21:06:54.546Z,44.50
2019-05-02T21:09:38.681Z,39.40
2019-05-02T21:12:12.702Z,43.10
2019-05-02T21:14:46.306Z,44.90
2019-05-02T21:17:19.716Z,46.23
2019-05-02T21:19:53.159Z,45.00
2019-05-02T21:22:29.181Z,41.60
2019-05-02T21:25:02.629Z,44.40
2019-05-02T21:27:36.094Z,43.73
2019-05-02T21:30:13.251Z,43.73
2019-05-02T21:32:46.671Z,47.80
2019-05-02T21:35:20.105Z,43.80
2019-05-02T21:37:53.498Z,50.30
2019-05-02T21:40:27.112Z,49.67
2019-05-02T21:43:02.370Z,48.73
2019-05-02T21:45:35.674Z,50.60
2019-05-02T21:48:09.066Z,45.03
2019-05-02T21:50:53.303Z,50.57
2019-05-02T21:53:33.872Z,55.80
2019-05-02T21:56:25.370Z,50.27
2019-05-02T21:59:09.063Z,53.93
2019-05-02T22:01:53.535Z,46.40
2019-05-02T22:04:26.964Z,45.63
2019-05-02T22:07:00.388Z,37.63
2019-05-02T22:09:33.815Z,27.60
2019-05-02T22:12:07.382Z,24.70
2019-05-02T22:14:42.161Z,25.23
2019-05-02T22:17:17.119Z,25.63
2019-05-02T22:19:52.418Z,20.60
2019-05-02T22:22:25.940Z,19.87
2019-05-02T22:24:59.356Z,16.10
2019-05-02T22:27:32.761Z,17.47
2019-05-02T22:30:07.639Z,18.77
2019-05-02T22:32:42.717Z,16.80
2019-05-02T22:35:16.281Z,15.17
2019-05-02T22:37:51.354Z,14.00
2019-05-02T22:40:24.751Z,15.07
2019-05-02T22:42:58.204Z,16.30
2019-05-02T22:45:32.228Z,15.37
2019-05-02T22:48:05.929Z,11.40
2019-05-02T22:50:39.325Z,10.73
2019-05-02T22:53:14.005Z,8.90
2019-05-02T22:55:47.538Z,10.07
2019-05-02T22:58:22.222Z,9.40
2019-05-02T23:00:55.713Z,10.53
2019-05-02T23:03:29.234Z,10.77
2019-05-02T23:06:02.722Z,10.30
2019-05-02T23:08:36.169Z,10.73
2019-05-02T23:11:09.669Z,11.10
2019-05-02T23:13:43.153Z,11.43
2019-05-02T23:16:16.632Z,10.43
2019-05-02T23:18:51.944Z,10.00
2019-05-02T23:21:25.271Z,11.20
2019-05-02T23:24:01.654Z,12.30
2019-05-02T23:26:42.841Z,10.73
2019-05-02T23:29:17.873Z,8.97
2019-05-02T23:31:51.823Z,9.07
2019-05-02T23:34:25.281Z,9.90
2019-05-02T23:36:58.709Z,10.10
2019-05-02T23:39:32.351Z,10.67
2019-05-02T23:42:05.841Z,11.13
2019-05-02T23:44:39.281Z,8.47
2019-05-02T23:47:12.716Z,10.93
2019-05-02T23:49:46.146Z,9.77
2019-05-02T23:52:19.574Z,9.97
2019-05-02T23:54:52.992Z,11.63
2019-05-02T23:57:26.405Z,10.10
2019-05-02T23:59:59.851Z,10.27
